Time;durP1;ratioP1;P1;durP2;ratioP2;P2;SDS_P1;SDS_P2;PMS_P1;PMS_P2;Temp;Humidity;BMP_temperature;BMP_pressure;BME280_temperature;BME280_humidity;BME280_pressure;Samples;Min_cycle;Max_cycle;Signal;HPM_P1;HPM_P2
2023/04/18 00:03:36;;;;;;;14.23;7.78;;;;;;;5.82;100.00;102856.28;10250251;28;20053;-75
2023/04/18 00:08:37;;;;;;;13.65;8.13;;;;;;;5.81;100.00;102860.06;10218634;28;20070;-75
2023/04/18 00:13:38;;;;;;;12.38;7.97;;;;;;;5.74;100.00;102856.31;10220620;28;20492;-75
2023/04/18 00:18:39;;;;;;;13.65;8.48;;;;;;;5.57;100.00;102843.72;10234163;28;20137;-75
2023/04/18 00:23:39;;;;;;;13.25;7.28;;;;;;;5.63;100.00;102864.88;10249388;28;20072;-72
2023/04/18 00:28:40;;;;;;;12.10;8.30;;;;;;;5.52;100.00;102862.47;10217913;28;20448;-75
2023/04/18 00:33:40;;;;;;;12.00;7.85;;;;;;;5.48;100.00;102856.53;10233263;28;20086;-75
2023/04/18 00:38:41;;;;;;;12.70;8.20;;;;;;;5.17;100.00;102818.13;10251412;28;20043;-74
2023/04/18 00:43:41;;;;;;;12.75;7.95;;;;;;;5.44;100.00;102866.94;10240110;28;20046;-73
2023/04/18 00:48:42;;;;;;;13.05;8.60;;;;;;;5.36;100.00;102864.22;10202307;28;20039;-72
2023/04/18 00:53:42;;;;;;;12.18;7.63;;;;;;;5.34;100.00;102874.44;10201949;28;20039;-76
2023/04/18 00:58:43;;;;;;;12.52;8.07;;;;;;;5.24;100.00;102843.72;10248145;28;20055;-74
2023/04/18 01:03:43;;;;;;;12.23;7.90;;;;;;;5.32;100.00;102851.91;10216182;28;20035;-73
2023/04/18 01:08:44;;;;;;;10.10;7.05;;;;;;;5.36;100.00;102852.44;10232990;28;20039;-73
2023/04/18 01:14:00;;;;;;;15.23;8.40;;;;;;;5.55;100.00;102867.63;10269632;28;20114;-75
2023/04/18 01:19:02;;;;;;;14.48;9.18;;;;;;;5.58;100.00;102861.78;10232880;28;20093;-75
2023/04/18 01:24:06;;;;;;;12.45;7.25;;;;;;;5.67;100.00;102877.16;10231706;28;20078;-73
2023/04/18 01:29:07;;;;;;;14.40;7.65;;;;;;;5.66;100.00;102864.53;10215907;28;20043;-74
2023/04/18 01:34:07;;;;;;;16.63;8.52;;;;;;;5.74;100.00;102872.72;10215750;28;20047;-73
2023/04/18 01:39:08;;;;;;;14.70;8.35;;;;;;;5.70;100.00;102857.69;10216921;28;20502;-73
2023/04/18 01:44:08;;;;;;;13.10;8.02;;;;;;;5.70;100.00;102854.09;10215296;28;20040;-73
2023/04/18 01:49:09;;;;;;;14.68;8.38;;;;;;;5.65;100.00;102857.38;10230794;28;20078;-73
2023/04/18 01:54:09;;;;;;;14.52;8.95;;;;;;;5.67;100.00;102844.38;10246846;28;20034;-74
2023/04/18 01:59:10;;;;;;;13.10;9.18;;;;;;;5.72;100.00;102852.06;10215272;28;20047;-72
2023/04/18 02:04:11;;;;;;;14.70;8.50;;;;;;;5.80;100.00;102850.16;10215895;28;20043;-73
2023/04/18 02:09:11;;;;;;;14.27;8.35;;;;;;;5.89;100.00;102853.75;10216545;28;20047;-73
2023/04/18 02:14:12;;;;;;;13.32;8.43;;;;;;;5.95;100.00;102841.25;10216131;28;20039;-73
2023/04/18 02:19:12;;;;;;;17.88;9.07;;;;;;;6.01;100.00;102856.97;10214671;28;20126;-73
2023/04/18 02:24:13;;;;;;;11.55;8.00;;;;;;;6.01;100.00;102851.50;10230443;28;20036;-73
2023/04/18 02:29:13;;;;;;;16.08;8.10;;;;;;;6.08;100.00;102863.44;10214015;28;20439;-73
2023/04/18 02:34:14;;;;;;;12.18;7.68;;;;;;;6.03;100.00;102857.66;10230986;28;20166;-74
2023/04/18 02:39:14;;;;;;;11.52;8.43;;;;;;;5.97;100.00;102844.66;10216853;28;20035;-73
2023/04/18 02:44:15;;;;;;;13.63;7.80;;;;;;;6.07;100.00;102856.25;10264043;28;20410;-73
2023/04/18 02:49:16;;;;;;;13.35;7.80;;;;;;;6.08;100.00;102866.19;10245410;28;20054;-73
2023/04/18 02:54:16;;;;;;;15.25;8.00;;;;;;;6.08;100.00;102866.19;10245008;28;20030;-73
2023/04/18 02:59:17;;;;;;;11.45;7.13;;;;;;;6.08;100.00;102863.44;10244775;28;20039;-73
2023/04/18 03:04:17;;;;;;;9.52;6.38;;;;;;;6.06;100.00;102865.50;10229457;28;20054;-73
2023/04/18 03:09:18;;;;;;;16.25;7.97;;;;;;;6.08;100.00;102871.66;10228359;28;20057;-73
2023/04/18 03:14:18;;;;;;;11.77;7.47;;;;;;;6.05;100.00;102863.78;10259594;28;20042;-72
2023/04/18 03:19:20;;;;;;;11.55;7.55;;;;;;;6.07;100.00;102868.03;10243482;28;20067;-73
2023/04/18 03:24:20;;;;;;;11.73;7.22;;;;;;;6.06;100.00;102871.81;10260146;28;20053;-73
2023/04/18 03:29:21;;;;;;;12.27;6.53;;;;;;;6.04;100.00;102864.84;10236235;28;20053;-73
2023/04/18 03:34:21;;;;;;;11.77;7.07;;;;;;;6.11;100.00;102890.44;10228598;28;20054;-74
2023/04/18 03:39:22;;;;;;;9.50;6.68;;;;;;;6.03;100.00;102871.31;10244576;28;20050;-73
2023/04/18 03:44:22;;;;;;;8.75;6.78;;;;;;;6.13;100.00;102884.81;10247501;28;20236;-74
2023/04/18 03:49:23;;;;;;;9.55;6.20;;;;;;;6.13;100.00;102891.13;10234438;28;20058;-73
2023/04/18 03:54:23;;;;;;;11.80;7.25;;;;;;;6.15;100.00;102894.53;10233746;28;20131;-73
2023/04/18 03:59:25;;;;;;;10.88;6.93;;;;;;;6.07;100.00;102880.88;10218333;28;20039;-73
2023/04/18 04:04:25;;;;;;;11.30;5.72;;;;;;;5.92;100.00;102868.94;10219725;28;20032;-73
2023/04/18 04:09:26;;;;;;;13.68;6.90;;;;;;;6.02;100.00;102886.88;10235902;28;20035;-73
2023/04/18 04:14:26;;;;;;;11.68;7.18;;;;;;;6.00;100.00;102888.09;10218895;28;20035;-74
2023/04/18 04:19:27;;;;;;;9.32;6.55;;;;;;;5.59;100.00;102834.31;10264289;28;20128;-73
2023/04/18 04:24:27;;;;;;;10.52;6.80;;;;;;;5.84;100.00;102886.19;10233605;28;20114;-72
2023/04/18 04:29:28;;;;;;;14.93;8.77;;;;;;;5.76;100.00;102895.25;10233629;28;20106;-73
2023/04/18 04:34:29;;;;;;;11.55;7.50;;;;;;;5.76;100.00;102903.44;10233793;28;20127;-72
2023/04/18 04:39:30;;;;;;;9.93;7.00;;;;;;;5.71;100.00;102900.41;10250024;28;20043;-73
2023/04/18 04:44:32;;;;;;;10.93;7.43;;;;;;;5.80;100.00;102907.53;10232637;28;20102;-73
2023/04/18 04:49:32;;;;;;;13.15;7.28;;;;;;;5.95;100.00;102917.81;10217270;28;20046;-73
2023/04/18 04:54:33;;;;;;;14.05;8.77;;;;;;;6.02;100.00;102913.38;10249467;28;20065;-74
2023/04/18 04:59:34;;;;;;;12.95;8.90;;;;;;;6.11;100.00;102922.41;10216010;28;20043;-73
2023/04/18 05:04:34;;;;;;;15.18;9.10;;;;;;;6.06;100.00;102909.25;10255380;28;20062;-73
2023/04/18 05:09:35;;;;;;;13.40;8.85;;;;;;;6.19;100.00;102909.56;10217117;28;20111;-73
2023/04/18 05:14:35;;;;;;;15.05;8.30;;;;;;;6.24;100.00;102918.09;10232882;28;20051;-73
2023/04/18 05:19:36;;;;;;;12.85;8.70;;;;;;;6.31;100.00;102922.88;10200631;28;20504;-73
2023/04/18 05:24:36;;;;;;;15.30;9.57;;;;;;;6.36;100.00;102918.56;10213456;28;20067;-74
2023/04/18 05:29:37;;;;;;;17.45;10.20;;;;;;;6.45;100.00;102909.31;10231406;28;20054;-73
2023/04/18 05:34:38;;;;;;;12.10;8.48;;;;;;;6.57;100.00;102912.50;10232703;28;20051;-73
2023/04/18 05:39:39;;;;;;;12.55;7.85;;;;;;;6.58;100.00;102903.25;10232822;28;20058;-73
2023/04/18 05:44:39;;;;;;;12.77;8.52;;;;;;;6.75;100.00;102919.63;10231119;28;20040;-73
2023/04/18 05:49:40;;;;;;;13.75;8.65;;;;;;;7.00;100.00;102904.75;10239462;28;20042;-73
2023/04/18 05:54:40;;;;;;;12.38;7.93;;;;;;;7.27;100.00;102916.22;10202666;28;20058;-74
2023/04/18 05:59:41;;;;;;;15.82;8.30;;;;;;;7.25;100.00;102915.53;10298621;28;20058;-73
2023/04/18 06:04:42;;;;;;;15.43;8.15;;;;;;;7.05;100.00;102916.03;10272880;28;20039;-73
2023/04/18 06:09:42;;;;;;;12.68;7.55;;;;;;;7.00;100.00;102932.13;10272251;28;20035;-73
2023/04/18 06:14:43;;;;;;;12.57;8.13;;;;;;;6.91;100.00;102925.00;10271123;28;20075;-73
2023/04/18 06:19:43;;;;;;;12.05;8.10;;;;;;;6.82;100.00;102915.09;10241519;28;20079;-74
2023/04/18 06:24:44;;;;;;;11.23;7.20;;;;;;;7.06;100.00;102923.19;10237398;28;20047;-73
2023/04/18 06:29:44;;;;;;;14.30;7.65;;;;;;;7.46;100.00;102934.91;10238475;28;20122;-73
2023/04/18 06:34:45;;;;;;;16.23;8.00;;;;;;;7.85;100.00;102938.50;10256673;28;20079;-73
2023/04/18 06:39:45;;;;;;;14.43;7.35;;;;;;;8.08;100.00;102925.63;10255093;28;20066;-73
2023/04/18 06:44:46;;;;;;;12.43;8.23;;;;;;;8.32;100.00;102939.25;10221996;28;20388;-74
2023/04/18 06:49:47;;;;;;;14.15;7.63;;;;;;;8.55;100.00;102922.72;10238530;28;20039;-74
2023/04/18 06:54:47;;;;;;;10.52;7.53;;;;;;;8.66;100.00;102931.31;10236337;28;20042;-74
2023/04/18 06:59:48;;;;;;;14.18;7.88;;;;;;;8.69;100.00;102908.97;10221999;28;20123;-74
2023/04/18 07:04:49;;;;;;;13.88;8.50;;;;;;;8.85;100.00;102918.03;10222429;28;20498;-75
2023/04/18 07:09:51;;;;;;;12.68;7.57;;;;;;;9.07;100.00;102928.03;10221848;28;20047;-74
2023/04/18 07:14:52;;;;;;;11.23;7.70;;;;;;;9.19;100.00;102911.00;10241979;28;20049;-74
2023/04/18 07:19:53;;;;;;;10.65;6.65;;;;;;;9.30;100.00;102910.47;10239495;28;20126;-74
2023/04/18 07:24:53;;;;;;;17.20;7.65;;;;;;;9.11;100.00;102906.47;10257569;28;20127;-73
2023/04/18 07:29:54;;;;;;;11.98;6.90;;;;;;;9.11;100.00;102894.66;10242865;28;20467;-74
2023/04/18 07:34:56;;;;;;;17.77;7.53;;;;;;;9.12;100.00;102907.34;10252469;28;20038;-74
2023/04/18 07:39:56;;;;;;;10.35;6.63;;;;;;;9.26;100.00;102881.69;10268490;28;20042;-75
2023/04/18 07:44:59;;;;;;;12.32;7.65;;;;;;;9.68;100.00;102902.81;10256900;28;20038;-74
2023/04/18 07:50:00;;;;;;;14.93;6.80;;;;;;;9.85;100.00;102902.53;10238463;28;20047;-74
2023/04/18 07:55:01;;;;;;;11.77;6.88;;;;;;;9.93;100.00;102887.78;10273430;28;20490;-75
2023/04/18 08:00:02;;;;;;;14.27;6.72;;;;;;;9.97;100.00;102850.56;10233312;28;20050;-74
2023/04/18 08:05:03;;;;;;;11.57;6.25;;;;;;;10.42;100.00;102906.13;10225346;28;20067;-75
2023/04/18 08:10:03;;;;;;;11.10;6.55;;;;;;;10.48;100.00;102902.53;10257816;28;20046;-76
2023/04/18 08:15:04;;;;;;;10.85;6.55;;;;;;;10.53;100.00;102911.03;10250017;28;20038;-79
2023/04/18 08:20:05;;;;;;;9.70;5.28;;;;;;;10.59;100.00;102907.47;10239575;28;20053;-75
2023/04/18 08:25:06;;;;;;;8.75;5.18;;;;;;;10.68;100.00;102903.47;10240256;28;20467;-75
2023/04/18 08:30:07;;;;;;;7.57;5.15;;;;;;;10.72;100.00;102892.03;10243489;28;20057;-75
2023/04/18 08:35:08;;;;;;;9.85;5.43;;;;;;;10.99;100.00;102921.38;10274290;28;20042;-76
2023/04/18 08:40:11;;;;;;;9.07;5.50;;;;;;;11.16;100.00;102915.50;10231268;28;20125;-75
2023/04/18 08:45:13;;;;;;;7.82;5.43;;;;;;;11.13;100.00;102904.91;10247700;28;20050;-77
2023/04/18 08:50:13;;;;;;;9.55;5.65;;;;;;;11.33;100.00;102927.84;10233700;28;20510;-77
2023/04/18 08:55:15;;;;;;;9.35;5.07;;;;;;;11.56;100.00;102912.81;10273236;28;20058;-77
2023/04/18 09:00:16;;;;;;;9.85;5.75;;;;;;;11.85;100.00;102909.63;10256853;28;20106;-76
2023/04/18 09:05:18;;;;;;;10.60;6.38;;;;;;;11.93;100.00;102902.22;10272822;28;20062;-75
2023/04/18 09:10:27;;;;;;;12.32;6.28;;;;;;;11.84;100.00;102913.44;10271053;28;20045;-85
2023/04/18 09:15:28;;;;;;;10.10;6.15;;;;;;;11.91;100.00;102902.44;10251366;28;20047;-80
2023/04/18 09:20:34;;;;;;;10.48;6.07;;;;;;;12.13;100.00;102900.28;10263219;28;20059;-77
2023/04/18 09:25:41;;;;;;;7.70;5.70;;;;;;;12.37;100.00;102926.34;10252887;28;20079;-76
2023/04/18 09:30:41;;;;;;;;;;;;;;;12.41;100.00;102921.25;10273335;28;20415;-78
2023/04/18 09:35:42;;;;;;;10.32;6.07;;;;;;;12.46;96.78;102899.34;10237668;28;19929;-80
2023/04/18 09:40:43;;;;;;;9.82;6.15;;;;;;;12.25;98.68;102857.13;10150963;29;20040;-79
2023/04/18 09:45:43;;;;;;;12.38;6.75;;;;;;;12.52;98.25;102887.41;10190735;29;20040;-82
2023/04/18 09:50:44;;;;;;;10.93;5.60;;;;;;;12.68;97.64;102892.47;10175354;29;20046;-80
2023/04/18 09:55:46;;;;;;;9.40;6.22;;;;;;;12.84;96.62;102895.81;10181166;29;20044;-80
2023/04/18 10:00:48;;;;;;;11.60;5.70;;;;;;;12.97;96.34;102906.78;10184571;29;20043;-81
2023/04/18 10:05:49;;;;;;;9.55;5.90;;;;;;;13.00;96.48;102888.91;10184651;29;20122;-82
2023/04/18 10:10:49;;;;;;;9.45;5.95;;;;;;;13.36;96.94;102884.66;10199194;29;20056;-82
2023/04/18 10:15:51;;;;;;;9.25;5.97;;;;;;;13.56;95.42;102882.59;10181938;29;20458;-80
2023/04/18 10:20:58;;;;;;;9.27;5.63;;;;;;;13.71;96.77;102890.56;10197279;29;20071;-83
2023/04/18 10:25:59;;;;;;;8.68;5.85;;;;;;;13.53;96.43;102892.19;10207716;28;20043;-81
2023/04/18 10:31:03;;;;;;;10.60;6.05;;;;;;;13.90;95.33;102894.22;10224889;28;20045;-81
2023/04/18 10:36:15;;;;;;;8.27;6.35;;;;;;;14.07;95.49;102875.94;10274421;28;20038;-81
2023/04/18 10:41:21;;;;;;;10.23;4.97;;;;;;;14.35;96.16;102887.59;10213436;28;20064;-82
2023/04/18 10:46:21;;;;;;;8.35;6.22;;;;;;;14.39;91.31;102874.97;10213141;28;20260;-72
2023/04/18 10:51:22;;;;;;;9.32;5.75;;;;;;;14.50;92.29;102874.19;10239785;28;20035;-74
2023/04/18 10:56:24;;;;;;;8.32;5.80;;;;;;;14.53;92.19;102880.13;10271479;28;20039;-78
2023/04/18 11:01:27;;;;;;;13.25;6.93;;;;;;;14.29;94.22;102843.09;10295174;28;20094;-87
2023/04/18 11:06:27;;;;;;;7.78;6.40;;;;;;;14.72;93.91;102867.09;10256910;28;20106;-85
2023/04/18 11:11:28;;;;;;;8.73;5.97;;;;;;;14.79;91.61;102857.84;10236645;28;20098;-77
2023/04/18 11:16:30;;;;;;;8.13;5.63;;;;;;;14.91;93.71;102867.06;10277895;28;20054;-81
2023/04/18 11:21:30;;;;;;;10.05;4.93;;;;;;;15.16;92.54;102852.19;10241851;28;20039;-83
2023/04/18 11:26:31;;;;;;;5.63;4.75;;;;;;;15.33;89.79;102831.00;10240635;28;20039;-87
2023/04/18 11:31:31;;;;;;;10.27;4.90;;;;;;;15.55;90.89;102834.03;10242059;28;20510;-81
2023/04/18 11:36:34;;;;;;;7.50;4.63;;;;;;;15.69;88.51;102840.22;10293371;28;20046;-81
2023/04/18 11:41:35;;;;;;;7.47;4.70;;;;;;;15.76;87.63;102829.03;10293167;28;20074;-84
2023/04/18 11:46:38;;;;;;;5.28;3.95;;;;;;;15.79;86.94;102834.91;10225553;28;20112;-82
2023/04/18 11:51:38;;;;;;;5.75;3.85;;;;;;;15.82;86.63;102828.88;10261915;28;20046;-79
2023/04/18 11:56:47;;;;;;;6.88;4.30;;;;;;;16.20;86.16;102824.72;10277848;28;20506;-80
2023/04/18 12:01:48;;;;;;;4.70;3.45;;;;;;;16.84;85.71;102834.97;10275844;28;20050;-78
2023/04/18 12:06:50;;;;;;;5.93;3.50;;;;;;;17.52;81.96;102810.81;10277140;28;20042;-80
2023/04/18 12:11:58;;;;;;;4.60;3.15;;;;;;;18.54;79.12;102815.06;10247514;28;20035;-78
2023/04/18 12:17:01;;;;;;;4.82;3.05;;;;;;;18.11;76.30;102799.19;10273297;28;20039;-77
2023/04/18 12:22:03;;;;;;;4.18;3.25;;;;;;;18.44;76.49;102794.53;10258393;28;20031;-77
2023/04/18 12:27:04;;;;;;;5.72;2.78;;;;;;;19.09;74.59;102788.00;10274581;28;20415;-77
2023/04/18 12:32:05;;;;;;;4.47;2.53;;;;;;;19.91;73.31;102780.25;10273584;28;20043;-78
2023/04/18 12:37:05;;;;;;;6.05;3.50;;;;;;;20.25;70.99;102774.22;10255270;28;20082;-82
2023/04/18 12:42:06;;;;;;;4.63;3.22;;;;;;;19.56;69.61;102784.47;10237164;28;20302;-77
2023/04/18 12:47:06;;;;;;;4.07;2.80;;;;;;;19.46;72.05;102800.31;10273483;28;20035;-76
2023/04/18 12:52:07;;;;;;;4.60;3.30;;;;;;;18.86;70.59;102777.19;10289287;28;20031;-75
2023/04/18 12:57:07;;;;;;;4.43;3.22;;;;;;;19.36;71.26;102793.53;10290172;28;20035;-79
2023/04/18 13:02:07;;;;;;;5.35;3.50;;;;;;;19.56;66.60;102776.09;10241567;28;20042;-76
2023/04/18 13:07:08;;;;;;;4.70;3.28;;;;;;;20.12;68.18;102777.56;10271851;28;20035;-77
2023/04/18 13:12:09;;;;;;;4.75;3.50;;;;;;;19.82;67.99;102779.06;10255134;28;20046;-78
2023/04/18 13:17:09;;;;;;;4.65;3.83;;;;;;;19.15;68.31;102795.31;10278201;28;20094;-77
2023/04/18 13:22:10;;;;;;;5.10;3.75;;;;;;;19.21;66.50;102779.47;10201071;28;20035;-78
2023/04/18 13:27:11;;;;;;;5.93;4.25;;;;;;;18.39;68.60;102788.91;10249113;28;20046;-78
2023/04/18 13:32:12;;;;;;;5.00;4.07;;;;;;;18.90;67.49;102775.56;10216755;28;20135;-76
2023/04/18 13:37:15;;;;;;;4.30;3.55;;;;;;;18.44;66.53;102775.03;10266277;28;20594;-77
2023/04/18 13:42:18;;;;;;;7.03;4.35;;;;;;;18.04;67.80;102792.94;10288444;28;20031;-82
2023/04/18 13:47:18;;;;;;;6.75;4.03;;;;;;;17.22;69.35;102722.94;10258782;28;20058;-81
2023/04/18 13:52:19;;;;;;;6.03;4.15;;;;;;;18.25;67.47;102783.75;10274235;28;20035;-78
2023/04/18 13:57:20;;;;;;;6.03;4.25;;;;;;;19.02;66.49;102776.22;10271639;28;20074;-82
2023/04/18 14:02:21;;;;;;;12.35;4.90;;;;;;;20.35;68.36;102785.47;10255898;28;20081;-85
2023/04/18 14:07:21;;;;;;;9.25;5.45;;;;;;;20.30;64.73;102773.44;10282695;28;20039;-83
2023/04/18 14:12:22;;;;;;;7.88;5.88;;;;;;;19.35;66.60;102779.84;10274496;28;20042;-83
2023/04/18 14:17:22;;;;;;;7.53;5.43;;;;;;;19.98;65.60;102784.75;10271241;28;20092;-82
2023/04/18 14:22:23;;;;;;;8.70;5.95;;;;;;;19.81;65.69;102759.78;10290102;28;20039;-77
2023/04/18 14:27:24;;;;;;;7.03;5.50;;;;;;;20.30;66.56;102749.09;10240882;28;20123;-81
2023/04/18 14:32:25;;;;;;;7.97;5.43;;;;;;;19.70;66.01;102764.41;10271254;28;20042;-84
2023/04/18 14:37:25;;;;;;;8.63;5.53;;;;;;;19.12;69.73;102795.88;10270801;28;20035;-83
2023/04/18 14:42:26;;;;;;;6.10;5.40;;;;;;;18.30;67.58;102772.66;10294296;28;20117;-82
2023/04/18 14:47:30;;;;;;;6.47;5.55;;;;;;;18.43;69.71;102795.66;10278929;28;20039;-80
2023/04/18 14:52:30;;;;;;;6.30;4.78;;;;;;;18.40;68.56;102785.00;10239258;28;20062;-82
2023/04/18 14:57:33;;;;;;;8.35;5.40;;;;;;;18.46;68.93;102795.13;10221741;28;20038;-83
2023/04/18 15:02:33;;;;;;;9.20;5.70;;;;;;;19.20;69.48;102799.25;10270902;28;20616;-83
2023/04/18 15:07:36;;;;;;;10.57;5.80;;;;;;;17.91;68.24;102772.72;10252780;28;20039;-82
2023/04/18 15:12:36;;;;;;;7.78;5.15;;;;;;;17.88;67.94;102778.81;10255687;28;20355;-83
2023/04/18 15:17:37;;;;;;;5.47;4.55;;;;;;;17.85;68.26;102784.03;10256487;28;20112;-83
2023/04/18 15:22:37;;;;;;;8.50;5.20;;;;;;;18.98;69.05;102791.00;10221871;28;20082;-83
2023/04/18 15:27:38;;;;;;;6.72;4.65;;;;;;;19.34;66.19;102783.75;10253559;28;20047;-82
2023/04/18 15:32:41;;;;;;;8.00;4.85;;;;;;;19.07;65.98;102770.69;10275102;28;20038;-83
2023/04/18 15:37:41;;;;;;;10.40;5.35;;;;;;;18.77;66.43;102771.22;10277980;28;20062;-83
2023/04/18 15:42:42;;;;;;;9.45;4.97;;;;;;;17.86;66.84;102789.38;10238483;28;20039;-84
2023/04/18 15:47:43;;;;;;;8.23;5.38;;;;;;;18.57;68.22;102788.56;10288313;28;20042;-83
2023/04/18 15:52:43;;;;;;;6.40;5.30;;;;;;;18.48;66.25;102770.59;10277410;28;20039;-84
2023/04/18 15:57:44;;;;;;;7.70;5.65;;;;;;;19.11;65.66;102771.81;10276776;28;20440;-77
2023/04/18 16:02:44;;;;;;;10.90;5.55;;;;;;;19.40;66.12;102774.28;10244695;28;20035;-77
2023/04/18 16:07:45;;;;;;;9.45;6.25;;;;;;;19.15;66.81;102778.56;10255361;28;20221;-80
2023/04/18 16:12:45;;;;;;;9.02;5.85;;;;;;;18.52;66.12;102780.13;10269962;28;20437;-80
2023/04/18 16:17:46;;;;;;;8.02;5.30;;;;;;;18.77;65.16;102782.38;10285827;28;20034;-81
2023/04/18 16:22:46;;;;;;;6.85;5.18;;;;;;;19.33;64.21;102779.28;10281711;28;20035;-80
2023/04/18 16:27:47;;;;;;;6.63;5.13;;;;;;;19.06;63.42;102760.63;10260194;28;20125;-80
2023/04/18 16:32:47;;;;;;;7.32;5.25;;;;;;;19.25;64.20;102790.94;10281699;28;20035;-81
2023/04/18 16:37:48;;;;;;;5.85;4.95;;;;;;;19.33;63.90;102787.66;10280616;28;20075;-79
2023/04/18 16:42:48;;;;;;;7.13;5.70;;;;;;;19.47;63.33;102788.88;10265274;28;20038;-80
2023/04/18 16:47:49;;;;;;;9.05;5.10;;;;;;;19.23;63.73;102791.19;10219854;28;20046;-80
2023/04/18 16:52:49;;;;;;;5.38;3.72;;;;;;;18.46;65.42;102795.13;10283638;28;20047;-81
2023/04/18 16:57:50;;;;;;;4.85;4.15;;;;;;;17.07;68.09;102807.00;10272989;28;20042;-81
2023/04/18 17:02:50;;;;;;;7.25;5.07;;;;;;;16.40;70.41;102807.66;10252907;28;20439;-80
2023/04/18 17:07:51;;;;;;;7.60;4.93;;;;;;;16.10;71.06;102814.25;10257236;28;20436;-80
2023/04/18 17:12:52;;;;;;;5.88;4.75;;;;;;;15.45;72.25;102806.88;10273239;28;20038;-82
2023/04/18 17:17:54;;;;;;;6.78;4.75;;;;;;;14.71;74.44;102826.59;10272301;28;20042;-83
2023/04/18 17:22:56;;;;;;;6.38;4.75;;;;;;;14.40;75.08;102815.69;10271331;28;20030;-81
2023/04/18 17:27:56;;;;;;;6.43;5.45;;;;;;;13.96;78.48;102824.06;10256864;28;20081;-80
2023/04/18 17:32:57;;;;;;;7.28;5.15;;;;;;;13.04;80.23;102821.03;10273959;28;20041;-82
2023/04/18 17:37:57;;;;;;;7.18;5.00;;;;;;;12.65;81.62;102840.41;10274990;28;20121;-82
2023/04/18 17:42:58;;;;;;;7.38;5.28;;;;;;;12.21;86.17;102852.25;10280814;28;20054;-79
2023/04/18 17:48:00;;;;;;;8.52;5.40;;;;;;;11.78;90.14;102853.59;10289626;28;20035;-77
2023/04/18 17:53:02;;;;;;;7.38;5.10;;;;;;;11.57;94.00;102862.09;10268924;28;20034;-81
2023/04/18 17:58:04;;;;;;;11.50;5.88;;;;;;;11.41;96.89;102880.78;10258710;28;20490;-80
2023/04/18 18:03:07;;;;;;;8.95;5.65;;;;;;;11.23;100.00;102892.41;10249893;28;20070;-76
2023/04/18 18:08:07;;;;;;;9.38;6.35;;;;;;;11.00;100.00;102876.25;10276061;28;20041;-81
2023/04/18 18:13:08;;;;;;;10.55;6.25;;;;;;;10.71;100.00;102860.91;10276927;28;20046;-76
2023/04/18 18:18:08;;;;;;;8.52;6.20;;;;;;;10.69;100.00;102877.63;10302422;28;20043;-81
2023/04/18 18:23:09;;;;;;;11.05;6.93;;;;;;;10.53;100.00;102886.25;10300792;28;20047;-81
2023/04/18 18:28:09;;;;;;;9.50;6.15;;;;;;;10.22;100.00;102876.50;10283041;28;20102;-81
2023/04/18 18:33:10;;;;;;;9.65;6.90;;;;;;;10.22;100.00;102901.28;10267077;28;20507;-81
2023/04/18 18:38:10;;;;;;;10.85;6.78;;;;;;;10.09;100.00;102891.06;10276510;28;20046;-81
2023/04/18 18:43:11;;;;;;;11.93;7.00;;;;;;;10.02;100.00;102911.31;10283568;28;20038;-80
2023/04/18 18:48:13;;;;;;;10.20;6.97;;;;;;;9.79;100.00;102893.16;10274575;28;20065;-79
2023/04/18 18:53:16;;;;;;;12.65;7.75;;;;;;;9.64;100.00;102892.41;10281991;28;20110;-76
2023/04/18 18:58:17;;;;;;;12.13;8.23;;;;;;;9.49;100.00;102887.84;10281371;28;20057;-80
2023/04/18 19:03:19;;;;;;;9.40;7.15;;;;;;;9.53;100.00;102915.81;10299181;28;20043;-80
2023/04/18 19:08:20;;;;;;;9.90;6.85;;;;;;;9.29;100.00;102886.81;10299900;28;20454;-80
2023/04/18 19:13:21;;;;;;;9.68;7.20;;;;;;;9.32;100.00;102918.53;10254350;28;20043;-80
2023/04/18 19:18:22;;;;;;;12.48;7.78;;;;;;;9.25;100.00;102913.81;10282572;28;20031;-81
2023/04/18 19:23:24;;;;;;;11.63;7.07;;;;;;;9.18;100.00;102923.06;10285759;28;20039;-84
2023/04/18 19:28:24;;;;;;;10.15;7.47;;;;;;;9.01;100.00;102916.94;10297152;28;20043;-79
2023/04/18 19:33:26;;;;;;;10.63;7.70;;;;;;;8.97;100.00;102921.13;10248790;28;20039;-79
2023/04/18 19:38:26;;;;;;;9.27;6.88;;;;;;;8.88;100.00;102934.97;10280077;28;20049;-78
2023/04/18 19:43:27;;;;;;;11.98;7.78;;;;;;;8.69;100.00;102914.44;10297160;28;20138;-79
2023/04/18 19:48:27;;;;;;;10.32;6.60;;;;;;;8.50;100.00;102909.56;10265532;28;20118;-79
2023/04/18 19:53:28;;;;;;;8.93;6.40;;;;;;;8.59;100.00;102938.59;10278858;28;20038;-80
2023/04/18 19:58:38;;;;;;;10.73;6.10;;;;;;;8.54;100.00;102949.31;10261590;28;20078;-78
2023/04/18 20:03:38;;;;;;;8.18;5.25;;;;;;;8.41;100.00;102943.63;10264233;28;20110;-81
2023/04/18 20:08:40;;;;;;;7.45;5.35;;;;;;;8.41;100.00;102954.59;10251644;28;20046;-79
2023/04/18 20:13:41;;;;;;;11.20;5.93;;;;;;;8.23;100.00;102930.28;10293227;28;20062;-79
2023/04/18 20:18:44;;;;;;;8.32;5.32;;;;;;;8.37;100.00;102956.00;10259199;28;20840;-80
2023/04/18 20:23:44;;;;;;;10.88;5.60;;;;;;;8.20;100.00;102953.44;10291989;28;20046;-81
2023/04/18 20:28:45;;;;;;;9.77;4.82;;;;;;;8.03;100.00;102946.41;10247603;28;20054;-79
2023/04/18 20:33:45;;;;;;;7.03;4.47;;;;;;;7.98;100.00;102948.84;10251714;28;20034;-78
2023/04/18 20:38:49;;;;;;;5.97;4.65;;;;;;;8.05;100.00;102960.78;10234025;28;20061;-82
2023/04/18 20:43:52;;;;;;;7.40;4.57;;;;;;;7.91;100.00;102948.75;10275028;28;20506;-77
2023/04/18 20:48:53;;;;;;;10.25;4.78;;;;;;;7.87;100.00;102958.38;10273289;28;20165;-78
2023/04/18 20:53:53;;;;;;;7.00;4.63;;;;;;;7.96;100.00;102968.25;10260548;28;20058;-78
2023/04/18 20:58:53;;;;;;;10.85;4.75;;;;;;;7.82;100.00;102956.19;10289977;28;20042;-78
2023/04/18 21:03:54;;;;;;;7.70;4.80;;;;;;;7.96;100.00;102984.72;10272851;28;20066;-78
2023/04/18 21:08:54;;;;;;;6.35;4.60;;;;;;;7.91;100.00;102987.13;10274258;28;20035;-80
2023/04/18 21:13:55;;;;;;;9.48;4.80;;;;;;;7.91;100.00;102995.38;10252248;28;20055;-79
2023/04/18 21:18:55;;;;;;;8.95;4.95;;;;;;;7.83;100.00;102990.81;10273468;28;20103;-79
2023/04/18 21:23:56;;;;;;;7.57;4.60;;;;;;;7.75;100.00;102979.94;10272464;28;20038;-78
2023/04/18 21:29:01;;;;;;;9.75;5.15;;;;;;;7.67;100.00;102986.31;10241037;28;20039;-78
2023/04/18 21:34:03;;;;;;;8.25;4.50;;;;;;;7.72;100.00;102999.47;10277503;28;20112;-79
2023/04/18 21:39:03;;;;;;;7.43;5.15;;;;;;;7.75;100.00;102999.13;10252107;28;20505;-79
2023/04/18 21:44:04;;;;;;;8.35;5.15;;;;;;;7.73;100.00;102976.50;10250465;28;20120;-79
2023/04/18 21:49:05;;;;;;;6.97;4.57;;;;;;;7.63;100.00;102973.16;10264275;28;20035;-79
2023/04/18 21:54:06;;;;;;;7.38;5.18;;;;;;;7.37;100.00;102929.66;10251648;28;20039;-79
2023/04/18 21:59:07;;;;;;;9.32;4.80;;;;;;;7.69;100.00;102997.09;10270744;28;20043;-79
2023/04/18 22:04:07;;;;;;;7.97;5.15;;;;;;;7.65;100.00;102990.28;10233779;28;20049;-78
2023/04/18 22:09:08;;;;;;;8.82;5.70;;;;;;;7.56;100.00;102984.00;10231988;28;20035;-79
2023/04/18 22:14:08;;;;;;;7.57;5.05;;;;;;;7.55;100.00;102993.25;10244583;28;20035;-79
2023/04/18 22:19:09;;;;;;;7.80;4.82;;;;;;;7.47;100.00;102991.41;10251828;28;20043;-78
2023/04/18 22:24:10;;;;;;;8.45;5.00;;;;;;;7.34;100.00;102976.59;10267887;28;20070;-80
2023/04/18 22:29:10;;;;;;;7.32;5.10;;;;;;;7.24;100.00;102979.59;10272000;28;20054;-80
2023/04/18 22:34:11;;;;;;;6.40;4.22;;;;;;;7.22;100.00;102985.25;10290030;28;20066;-80
2023/04/18 22:39:11;;;;;;;9.00;5.10;;;;;;;7.31;100.00;103005.22;10227762;28;20105;-80
2023/04/18 22:44:12;;;;;;;8.90;5.10;;;;;;;7.25;100.00;103003.19;10241118;28;20031;-81
2023/04/18 22:49:13;;;;;;;6.93;4.90;;;;;;;7.08;100.00;102989.59;10288932;28;20590;-78
2023/04/18 22:54:13;;;;;;;8.27;5.03;;;;;;;7.18;100.00;103014.03;10288350;28;20054;-80